sensor_id;sensor_type;location;lat;lon;timestamp;pressure;altitude;pressure_sealevel;temperature;humidity
33845;BME280;20145;43.118;25.694;2022-11-15T00:00:30;100297.47;;;10.36;98.05
33845;BME280;20145;43.118;25.694;2022-11-15T00:06:03;100288.91;;;10.43;98.16
33845;BME280;20145;43.118;25.694;2022-11-15T00:11:16;100282.03;;;10.50;97.77
33845;BME280;20145;43.118;25.694;2022-11-15T00:13:42;100271.72;;;10.55;97.43
33845;BME280;20145;43.118;25.694;2022-11-15T00:16:17;100283.78;;;10.57;96.81
33845;BME280;20145;43.118;25.694;2022-11-15T00:18:57;100276.91;;;10.53;97.83
33845;BME280;20145;43.118;25.694;2022-11-15T00:24:26;100271.72;;;10.53;97.91
33845;BME280;20145;43.118;25.694;2022-11-15T00:26:51;100274.31;;;10.53;96.52
33845;BME280;20145;43.118;25.694;2022-11-15T00:29:17;100269.13;;;10.52;98.12
33845;BME280;20145;43.118;25.694;2022-11-15T00:31:44;100270.84;;;10.53;97.83
33845;BME280;20145;43.118;25.694;2022-11-15T00:34:09;100266.56;;;10.55;96.38
33845;BME280;20145;43.118;25.694;2022-11-15T00:36:35;100270.84;;;10.56;96.29
33845;BME280;20145;43.118;25.694;2022-11-15T00:39:02;100269.13;;;10.50;97.48
33845;BME280;20145;43.118;25.694;2022-11-15T00:41:30;100260.53;;;10.54;97.50
33845;BME280;20145;43.118;25.694;2022-11-15T00:43:55;100268.25;;;10.34;97.06
33845;BME280;20145;43.118;25.694;2022-11-15T00:46:21;100272.56;;;10.37;97.36
33845;BME280;20145;43.118;25.694;2022-11-15T00:48:46;100263.09;;;10.40;96.53
33845;BME280;20145;43.118;25.694;2022-11-15T00:51:11;100266.53;;;10.38;96.91
33845;BME280;20145;43.118;25.694;2022-11-15T00:53:39;100258.75;;;10.33;97.21
33845;BME280;20145;43.118;25.694;2022-11-15T00:56:05;100257.94;;;10.34;97.74
33845;BME280;20145;43.118;25.694;2022-11-15T01:01:10;100261.34;;;10.36;97.58
33845;BME280;20145;43.118;25.694;2022-11-15T01:03:44;100254.50;;;10.34;97.23
33845;BME280;20145;43.118;25.694;2022-11-15T01:08:43;100256.19;;;10.35;97.68
33845;BME280;20145;43.118;25.694;2022-11-15T01:17:11;100239.84;;;10.39;97.95
33845;BME280;20145;43.118;25.694;2022-11-15T01:19:49;100241.59;;;10.38;98.18
33845;BME280;20145;43.118;25.694;2022-11-15T01:22:24;100243.31;;;10.41;96.98
33845;BME280;20145;43.118;25.694;2022-11-15T01:30:29;100238.13;;;10.36;98.20
33845;BME280;20145;43.118;25.694;2022-11-15T01:36:05;100230.41;;;10.41;97.69
33845;BME280;20145;43.118;25.694;2022-11-15T01:38:31;100235.59;;;10.45;96.37
33845;BME280;20145;43.118;25.694;2022-11-15T01:49:15;100232.91;;;10.21;97.92
33845;BME280;20145;43.118;25.694;2022-11-15T01:51:42;100237.22;;;10.25;97.86
33845;BME280;20145;43.118;25.694;2022-11-15T01:54:09;100233.81;;;10.31;98.29
33845;BME280;20145;43.118;25.694;2022-11-15T01:59:38;100222.63;;;10.25;98.43
33845;BME280;20145;43.118;25.694;2022-11-15T02:14:00;100227.75;;;10.12;99.28
33845;BME280;20145;43.118;25.694;2022-11-15T02:24:55;100220.88;;;10.21;99.94
33845;BME280;20145;43.118;25.694;2022-11-15T02:33:06;100215.81;;;10.34;98.21
33845;BME280;20145;43.118;25.694;2022-11-15T02:38:47;100208.91;;;10.40;97.96
33845;BME280;20145;43.118;25.694;2022-11-15T02:47:06;100195.16;;;10.41;96.95
33845;BME280;20145;43.118;25.694;2022-11-15T02:49:43;100198.59;;;10.43;97.67
33845;BME280;20145;43.118;25.694;2022-11-15T02:58:48;100200.34;;;10.60;97.87
33845;BME280;20145;43.118;25.694;2022-11-15T03:09:34;100190.00;;;10.49;96.91
33845;BME280;20145;43.118;25.694;2022-11-15T03:12:24;100193.44;;;10.36;97.17
33845;BME280;20145;43.118;25.694;2022-11-15T03:15:00;100193.44;;;10.36;96.35
33845;BME280;20145;43.118;25.694;2022-11-15T03:17:28;100182.25;;;10.32;97.50
33845;BME280;20145;43.118;25.694;2022-11-15T03:19:59;100185.66;;;10.28;96.84
33845;BME280;20145;43.118;25.694;2022-11-15T03:22:26;100179.66;;;10.27;97.93
33845;BME280;20145;43.118;25.694;2022-11-15T03:24:54;100180.53;;;10.30;97.13
33845;BME280;20145;43.118;25.694;2022-11-15T03:27:22;100182.25;;;10.32;98.08
33845;BME280;20145;43.118;25.694;2022-11-15T03:29:52;100185.66;;;10.20;98.11
33845;BME280;20145;43.118;25.694;2022-11-15T03:32:20;100175.31;;;10.16;98.42
33845;BME280;20145;43.118;25.694;2022-11-15T03:34:52;100176.16;;;10.16;98.17
33845;BME280;20145;43.118;25.694;2022-11-15T03:37:20;100177.00;;;10.11;96.77
33845;BME280;20145;43.118;25.694;2022-11-15T03:39:47;100179.56;;;10.03;98.08
33845;BME280;20145;43.118;25.694;2022-11-15T03:49:38;100168.38;;;9.84;99.32
33845;BME280;20145;43.118;25.694;2022-11-15T03:52:07;100170.09;;;9.94;99.63
33845;BME280;20145;43.118;25.694;2022-11-15T03:54:32;100164.97;;;10.05;98.71
33845;BME280;20145;43.118;25.694;2022-11-15T03:56:57;100170.16;;;10.10;99.22
33845;BME280;20145;43.118;25.694;2022-11-15T03:59:23;100169.28;;;10.12;97.93
33845;BME280;20145;43.118;25.694;2022-11-15T04:01:48;100167.56;;;10.08;98.86
33845;BME280;20145;43.118;25.694;2022-11-15T04:04:14;100161.59;;;10.20;98.53
33845;BME280;20145;43.118;25.694;2022-11-15T04:06:39;100154.75;;;10.31;98.95
33845;BME280;20145;43.118;25.694;2022-11-15T04:09:05;100166.78;;;10.37;97.68
33845;BME280;20145;43.118;25.694;2022-11-15T04:11:30;100162.47;;;10.30;96.55
33845;BME280;20145;43.118;25.694;2022-11-15T04:13:55;100157.25;;;10.22;97.87
33845;BME280;20145;43.118;25.694;2022-11-15T04:16:21;100155.56;;;10.25;97.92
33845;BME280;20145;43.118;25.694;2022-11-15T04:18:46;100150.44;;;10.29;96.57
33845;BME280;20145;43.118;25.694;2022-11-15T04:21:31;100155.53;;;10.19;96.15
33845;BME280;20145;43.118;25.694;2022-11-15T04:24:15;100161.53;;;9.92;98.37
33845;BME280;20145;43.118;25.694;2022-11-15T04:26:41;100153.78;;;9.92;99.67
33845;BME280;20145;43.118;25.694;2022-11-15T04:29:06;100153.78;;;9.92;99.34
33845;BME280;20145;43.118;25.694;2022-11-15T04:31:50;100153.78;;;9.97;100.00
33845;BME280;20145;43.118;25.694;2022-11-15T04:34:15;100155.53;;;10.01;99.73
33845;BME280;20145;43.118;25.694;2022-11-15T04:36:41;100152.03;;;9.82;99.82
33845;BME280;20145;43.118;25.694;2022-11-15T04:39:25;100157.22;;;9.90;99.50
33845;BME280;20145;43.118;25.694;2022-11-15T04:41:50;100144.31;;;9.94;99.89
33845;BME280;20145;43.118;25.694;2022-11-15T04:44:15;100151.22;;;9.98;98.19
33845;BME280;20145;43.118;25.694;2022-11-15T04:46:41;100153.78;;;9.98;98.04
33845;BME280;20145;43.118;25.694;2022-11-15T04:49:06;100144.31;;;9.91;98.01
33845;BME280;20145;43.118;25.694;2022-11-15T04:51:32;100150.31;;;9.95;98.61
33845;BME280;20145;43.118;25.694;2022-11-15T04:53:57;100146.06;;;9.92;97.47
33845;BME280;20145;43.118;25.694;2022-11-15T04:56:23;100150.34;;;9.96;98.13
33845;BME280;20145;43.118;25.694;2022-11-15T04:58:49;100149.47;;;9.94;97.36
33845;BME280;20145;43.118;25.694;2022-11-15T05:01:14;100139.16;;;9.91;98.54
33845;BME280;20145;43.118;25.694;2022-11-15T05:03:43;100145.16;;;9.92;97.67
33845;BME280;20145;43.118;25.694;2022-11-15T05:06:29;100140.91;;;9.98;98.51
33845;BME280;20145;43.118;25.694;2022-11-15T05:08:54;100144.34;;;10.02;98.37
33845;BME280;20145;43.118;25.694;2022-11-15T05:11:20;100144.34;;;9.99;97.31
33845;BME280;20145;43.118;25.694;2022-11-15T05:13:46;100148.63;;;10.00;98.19
33845;BME280;20145;43.118;25.694;2022-11-15T05:16:11;100145.19;;;9.90;97.62
33845;BME280;20145;43.118;25.694;2022-11-15T05:18:36;100148.59;;;9.88;98.07
33845;BME280;20145;43.118;25.694;2022-11-15T05:21:08;100144.34;;;9.96;98.98
33845;BME280;20145;43.118;25.694;2022-11-15T05:23:33;100152.91;;;9.93;98.04
33845;BME280;20145;43.118;25.694;2022-11-15T05:26:00;100151.22;;;9.92;99.26
33845;BME280;20145;43.118;25.694;2022-11-15T05:28:25;100144.34;;;9.93;98.12
33845;BME280;20145;43.118;25.694;2022-11-15T05:30:51;100144.31;;;9.97;99.34
33845;BME280;20145;43.118;25.694;2022-11-15T05:33:16;100150.34;;;9.93;97.77
33845;BME280;20145;43.118;25.694;2022-11-15T05:35:42;100149.50;;;9.93;99.05
33845;BME280;20145;43.118;25.694;2022-11-15T05:38:11;100151.16;;;9.86;98.06
33845;BME280;20145;43.118;25.694;2022-11-15T05:40:37;100148.59;;;9.89;98.59
33845;BME280;20145;43.118;25.694;2022-11-15T05:43:02;100154.63;;;9.85;98.86
33845;BME280;20145;43.118;25.694;2022-11-15T05:45:28;100157.16;;;9.73;98.74
33845;BME280;20145;43.118;25.694;2022-11-15T05:47:54;100157.09;;;9.64;99.50
33845;BME280;20145;43.118;25.694;2022-11-15T05:50:22;100161.41;;;9.60;99.48
33845;BME280;20145;43.118;25.694;2022-11-15T05:52:47;100155.41;;;9.66;98.91
33845;BME280;20145;43.118;25.694;2022-11-15T05:55:13;100155.44;;;9.73;100.00
33845;BME280;20145;43.118;25.694;2022-11-15T05:57:39;100153.72;;;9.75;99.51
33845;BME280;20145;43.118;25.694;2022-11-15T06:00:04;100146.00;;;9.77;99.25
33845;BME280;20145;43.118;25.694;2022-11-15T06:02:30;100152.03;;;9.82;99.00
33845;BME280;20145;43.118;25.694;2022-11-15T06:04:55;100152.03;;;9.79;99.28
33845;BME280;20145;43.118;25.694;2022-11-15T06:07:21;100162.31;;;9.76;99.66
33845;BME280;20145;43.118;25.694;2022-11-15T06:09:46;100164.91;;;9.80;99.30
33845;BME280;20145;43.118;25.694;2022-11-15T06:12:11;100169.22;;;9.88;98.03
33845;BME280;20145;43.118;25.694;2022-11-15T06:14:37;100164.09;;;9.92;97.67
33845;BME280;20145;43.118;25.694;2022-11-15T06:17:02;100169.25;;;10.00;98.18
33845;BME280;20145;43.118;25.694;2022-11-15T06:19:28;100169.22;;;9.91;98.17
33845;BME280;20145;43.118;25.694;2022-11-15T06:21:58;100168.41;;;9.98;98.75
33845;BME280;20145;43.118;25.694;2022-11-15T06:24:23;100171.00;;;9.98;97.43
33845;BME280;20145;43.118;25.694;2022-11-15T06:26:48;100164.97;;;10.08;97.87
33845;BME280;20145;43.118;25.694;2022-11-15T06:29:14;100170.13;;;10.11;97.37
33845;BME280;20145;43.118;25.694;2022-11-15T06:31:39;100171.00;;;10.16;96.52
33845;BME280;20145;43.118;25.694;2022-11-15T06:34:05;100165.81;;;10.09;96.22
33845;BME280;20145;43.118;25.694;2022-11-15T06:36:30;100172.72;;;10.10;96.99
33845;BME280;20145;43.118;25.694;2022-11-15T06:38:56;100169.28;;;10.06;96.46
33845;BME280;20145;43.118;25.694;2022-11-15T06:41:21;100170.13;;;10.02;95.96
33845;BME280;20145;43.118;25.694;2022-11-15T06:43:47;100174.44;;;10.01;96.22
33845;BME280;20145;43.118;25.694;2022-11-15T06:46:12;100176.97;;;10.00;96.49
33845;BME280;20145;43.118;25.694;2022-11-15T06:48:37;100176.97;;;9.94;96.35
33845;BME280;20145;43.118;25.694;2022-11-15T06:51:03;100170.06;;;9.83;97.95
33845;BME280;20145;43.118;25.694;2022-11-15T06:53:29;100162.38;;;9.93;97.78
33845;BME280;20145;43.118;25.694;2022-11-15T06:55:58;100169.25;;;9.98;96.89
33845;BME280;20145;43.118;25.694;2022-11-15T06:58:23;100164.97;;;9.99;96.32
33845;BME280;20145;43.118;25.694;2022-11-15T07:00:49;100177.00;;;10.03;96.70
33845;BME280;20145;43.118;25.694;2022-11-15T07:03:14;100171.00;;;10.10;95.93
33845;BME280;20145;43.118;25.694;2022-11-15T07:05:40;100170.16;;;10.07;96.04
33845;BME280;20145;43.118;25.694;2022-11-15T07:08:05;100166.66;;;10.00;96.27
33845;BME280;20145;43.118;25.694;2022-11-15T07:10:30;100159.81;;;10.02;96.97
33845;BME280;20145;43.118;25.694;2022-11-15T07:12:56;100163.25;;;9.98;96.98
33845;BME280;20145;43.118;25.694;2022-11-15T07:15:22;100165.00;;;10.03;96.30
33845;BME280;20145;43.118;25.694;2022-11-15T07:17:48;100157.25;;;10.03;97.19
33845;BME280;20145;43.118;25.694;2022-11-15T07:20:13;100156.34;;;10.00;96.90
33845;BME280;20145;43.118;25.694;2022-11-15T07:22:39;100155.50;;;10.02;96.27
33845;BME280;20145;43.118;25.694;2022-11-15T07:25:05;100160.69;;;10.07;96.82
33845;BME280;20145;43.118;25.694;2022-11-15T07:27:31;100152.94;;;10.02;95.75
33845;BME280;20145;43.118;25.694;2022-11-15T07:29:56;100148.66;;;10.06;96.78
33845;BME280;20145;43.118;25.694;2022-11-15T07:32:21;100148.66;;;10.11;95.87
33845;BME280;20145;43.118;25.694;2022-11-15T07:34:47;100152.97;;;10.12;96.39
33845;BME280;20145;43.118;25.694;2022-11-15T07:37:12;100148.66;;;10.12;97.34
33845;BME280;20145;43.118;25.694;2022-11-15T07:39:37;100146.94;;;10.16;95.84
33845;BME280;20145;43.118;25.694;2022-11-15T07:42:03;100155.56;;;10.12;95.72
33845;BME280;20145;43.118;25.694;2022-11-15T07:44:47;100154.66;;;10.11;96.98
33845;BME280;20145;43.118;25.694;2022-11-15T07:47:12;100152.09;;;10.19;96.31
33845;BME280;20145;43.118;25.694;2022-11-15T07:49:38;100156.41;;;10.18;95.77
33845;BME280;20145;43.118;25.694;2022-11-15T07:52:03;100158.09;;;10.01;96.01
33845;BME280;20145;43.118;25.694;2022-11-15T07:54:28;100162.34;;;9.88;95.78
33845;BME280;20145;43.118;25.694;2022-11-15T07:56:54;100156.25;;;9.63;97.17
33845;BME280;20145;43.118;25.694;2022-11-15T07:59:19;100152.81;;;9.64;98.84
33845;BME280;20145;43.118;25.694;2022-11-15T08:01:45;100147.66;;;9.59;98.13
33845;BME280;20145;43.118;25.694;2022-11-15T08:04:10;100145.06;;;9.56;99.01
33845;BME280;20145;43.118;25.694;2022-11-15T08:06:36;100143.31;;;9.49;98.62
33845;BME280;20145;43.118;25.694;2022-11-15T08:09:02;100145.03;;;9.46;99.74
33845;BME280;20145;43.118;25.694;2022-11-15T08:11:27;100145.91;;;9.51;99.56
33845;BME280;20145;43.118;25.694;2022-11-15T08:13:52;100139.91;;;9.55;99.96
33845;BME280;20145;43.118;25.694;2022-11-15T08:16:18;100139.97;;;9.69;100.00
33845;BME280;20145;43.118;25.694;2022-11-15T08:18:43;100132.28;;;9.81;99.96
33845;BME280;20145;43.118;25.694;2022-11-15T08:21:09;100135.72;;;9.94;99.24
33845;BME280;20145;43.118;25.694;2022-11-15T08:23:34;100134.03;;;10.02;98.17
33845;BME280;20145;43.118;25.694;2022-11-15T08:26:00;100129.75;;;10.04;97.78
33845;BME280;20145;43.118;25.694;2022-11-15T08:28:26;100124.59;;;10.07;97.23
33845;BME280;20145;43.118;25.694;2022-11-15T08:30:51;100128.00;;;9.95;96.62
33845;BME280;20145;43.118;25.694;2022-11-15T08:33:17;100128.88;;;10.03;97.47
33845;BME280;20145;43.118;25.694;2022-11-15T08:35:42;100118.56;;;10.11;96.34
33845;BME280;20145;43.118;25.694;2022-11-15T08:38:08;100116.88;;;10.25;96.55
33845;BME280;20145;43.118;25.694;2022-11-15T08:40:34;100114.31;;;10.33;96.46
33845;BME280;20145;43.118;25.694;2022-11-15T08:43:00;100113.47;;;10.40;96.14
33845;BME280;20145;43.118;25.694;2022-11-15T08:45:28;100110.03;;;10.41;94.18
33845;BME280;20145;43.118;25.694;2022-11-15T08:47:53;100113.47;;;10.34;94.89
33845;BME280;20145;43.118;25.694;2022-11-15T08:50:19;100101.38;;;10.10;94.93
33845;BME280;20145;43.118;25.694;2022-11-15T08:52:44;100106.53;;;10.19;95.12
33845;BME280;20145;43.118;25.694;2022-11-15T08:55:10;100097.94;;;10.08;95.80
33845;BME280;20145;43.118;25.694;2022-11-15T08:57:35;100097.94;;;9.96;97.30
33845;BME280;20145;43.118;25.694;2022-11-15T09:00:01;100090.13;;;9.67;97.19
33845;BME280;20145;43.118;25.694;2022-11-15T09:02:26;100087.59;;;9.74;98.07
33845;BME280;20145;43.118;25.694;2022-11-15T09:04:51;100083.31;;;9.81;96.88
33845;BME280;20145;43.118;25.694;2022-11-15T09:07:17;100079.91;;;9.96;98.12
33845;BME280;20145;43.118;25.694;2022-11-15T09:09:42;100073.00;;;10.09;96.62
33845;BME280;20145;43.118;25.694;2022-11-15T09:12:08;100076.47;;;10.20;97.21
33845;BME280;20145;43.118;25.694;2022-11-15T09:14:33;100073.03;;;10.36;95.90
33845;BME280;20145;43.118;25.694;2022-11-15T09:16:59;100072.19;;;10.33;94.38
33845;BME280;20145;43.118;25.694;2022-11-15T09:19:24;100071.31;;;10.26;94.45
33845;BME280;20145;43.118;25.694;2022-11-15T09:24:34;100058.41;;;10.00;95.27
33845;BME280;20145;43.118;25.694;2022-11-15T09:27:00;100057.50;;;9.75;96.37
33845;BME280;20145;43.118;25.694;2022-11-15T09:29:25;100049.78;;;9.67;97.84
33845;BME280;20145;43.118;25.694;2022-11-15T09:31:53;100045.47;;;9.57;98.49
33845;BME280;20145;43.118;25.694;2022-11-15T09:34:19;100045.47;;;9.51;97.64
33845;BME280;20145;43.118;25.694;2022-11-15T09:36:46;100047.19;;;9.59;98.96
33845;BME280;20145;43.118;25.694;2022-11-15T09:39:11;100035.16;;;9.60;97.49
33845;BME280;20145;43.118;25.694;2022-11-15T09:41:58;100030.84;;;9.53;98.08
33845;BME280;20145;43.118;25.694;2022-11-15T09:49:35;100027.44;;;9.57;97.34
33845;BME280;20145;43.118;25.694;2022-11-15T09:52:01;100023.13;;;9.60;97.44
33845;BME280;20145;43.118;25.694;2022-11-15T09:57:04;100018.84;;;9.63;97.42
33845;BME280;20145;43.118;25.694;2022-11-15T09:59:35;100012.00;;;9.65;97.29
33845;BME280;20145;43.118;25.694;2022-11-15T10:04:47;100008.59;;;9.87;95.97
33845;BME280;20145;43.118;25.694;2022-11-15T10:07:19;100011.16;;;9.81;95.36
33845;BME280;20145;43.118;25.694;2022-11-15T10:12:24;100003.41;;;9.92;95.17
33845;BME280;20145;43.118;25.694;2022-11-15T10:14:58;100000.84;;;9.84;95.23
33845;BME280;20145;43.118;25.694;2022-11-15T10:17:40;99995.69;;;9.86;95.62
33845;BME280;20145;43.118;25.694;2022-11-15T10:22:45;99984.50;;;10.11;95.38
33845;BME280;20145;43.118;25.694;2022-11-15T10:25:24;99985.38;;;10.12;93.98
33845;BME280;20145;43.118;25.694;2022-11-15T10:27:54;99983.66;;;10.32;95.11
33845;BME280;20145;43.118;25.694;2022-11-15T10:30:20;99981.91;;;10.25;93.26
33845;BME280;20145;43.118;25.694;2022-11-15T10:32:46;99980.19;;;10.33;94.12
33845;BME280;20145;43.118;25.694;2022-11-15T10:35:19;99974.19;;;10.33;93.33
33845;BME280;20145;43.118;25.694;2022-11-15T10:37:48;99976.78;;;10.20;93.78
33845;BME280;20145;43.118;25.694;2022-11-15T10:40:21;99978.50;;;10.23;93.82
33845;BME280;20145;43.118;25.694;2022-11-15T10:42:47;99969.88;;;10.19;93.75
33845;BME280;20145;43.118;25.694;2022-11-15T10:45:29;99969.03;;;10.20;93.74
33845;BME280;20145;43.118;25.694;2022-11-15T10:48:18;99963.84;;;10.26;94.34
33845;BME280;20145;43.118;25.694;2022-11-15T10:50:41;99963.03;;;10.32;93.28
33845;BME280;20145;43.118;25.694;2022-11-15T10:55:52;99963.88;;;10.23;93.35
33845;BME280;20145;43.118;25.694;2022-11-15T10:58:26;99957.03;;;10.29;92.29
33845;BME280;20145;43.118;25.694;2022-11-15T11:00:56;99942.41;;;10.29;92.50
33845;BME280;20145;43.118;25.694;2022-11-15T11:03:36;99946.69;;;10.32;92.69
33845;BME280;20145;43.118;25.694;2022-11-15T11:08:30;99941.53;;;10.21;92.77
33845;BME280;20145;43.118;25.694;2022-11-15T11:11:00;99939.81;;;10.27;93.19
33845;BME280;20145;43.118;25.694;2022-11-15T11:13:32;99932.06;;;10.35;93.41
33845;BME280;20145;43.118;25.694;2022-11-15T11:21:13;99930.34;;;10.40;91.85
33845;BME280;20145;43.118;25.694;2022-11-15T11:29:08;99920.81;;;10.55;92.21
33845;BME280;20145;43.118;25.694;2022-11-15T11:31:43;99913.06;;;10.61;91.25
33845;BME280;20145;43.118;25.694;2022-11-15T11:39:39;99904.34;;;10.86;89.21
33845;BME280;20145;43.118;25.694;2022-11-15T11:48:04;99888.16;;;10.49;90.90
33845;BME280;20145;43.118;25.694;2022-11-15T11:50:27;99889.91;;;10.42;91.36
33845;BME280;20145;43.118;25.694;2022-11-15T11:53:12;99889.09;;;10.19;92.31
33845;BME280;20145;43.118;25.694;2022-11-15T11:55:43;99883.00;;;10.44;92.11
33845;BME280;20145;43.118;25.694;2022-11-15T12:00:43;99876.84;;;10.78;89.71
33845;BME280;20145;43.118;25.694;2022-11-15T12:05:42;99871.56;;;10.94;87.94
33845;BME280;20145;43.118;25.694;2022-11-15T12:10:36;99864.84;;;10.74;89.92
33845;BME280;20145;43.118;25.694;2022-11-15T12:13:04;99860.53;;;10.69;89.59
33845;BME280;20145;43.118;25.694;2022-11-15T12:15:32;99869.97;;;10.78;88.00
33845;BME280;20145;43.118;25.694;2022-11-15T12:18:01;99856.16;;;10.87;89.43
33845;BME280;20145;43.118;25.694;2022-11-15T12:20:27;99854.44;;;10.84;87.86
33845;BME280;20145;43.118;25.694;2022-11-15T12:22:58;99851.84;;;10.86;88.65
33845;BME280;20145;43.118;25.694;2022-11-15T12:28:33;99845.75;;;10.94;88.04
33845;BME280;20145;43.118;25.694;2022-11-15T12:33:40;99839.94;;;10.65;88.66
33845;BME280;20145;43.118;25.694;2022-11-15T12:36:30;99832.25;;;10.53;89.97
33845;BME280;20145;43.118;25.694;2022-11-15T12:38:59;99835.78;;;10.39;89.73
33845;BME280;20145;43.118;25.694;2022-11-15T12:41:29;99830.56;;;10.45;90.60
33845;BME280;20145;43.118;25.694;2022-11-15T12:43:55;99833.97;;;10.57;89.55
33845;BME280;20145;43.118;25.694;2022-11-15T12:54:29;99820.88;;;10.83;89.55
33845;BME280;20145;43.118;25.694;2022-11-15T12:57:50;99823.53;;;10.77;88.77
33845;BME280;20145;43.118;25.694;2022-11-15T12:59:55;99818.28;;;10.92;87.52
33845;BME280;20145;43.118;25.694;2022-11-15T13:12:53;99808.16;;;10.57;89.36
33845;BME280;20145;43.118;25.694;2022-11-15T13:20:47;99799.53;;;10.58;88.21
33845;BME280;20145;43.118;25.694;2022-11-15T13:23:13;99799.53;;;10.61;88.96
33845;BME280;20145;43.118;25.694;2022-11-15T13:28:30;99800.34;;;10.66;87.54
33845;BME280;20145;43.118;25.694;2022-11-15T13:30:57;99790.03;;;10.66;88.07
33845;BME280;20145;43.118;25.694;2022-11-15T13:33:25;99793.44;;;10.76;87.71
33845;BME280;20145;43.118;25.694;2022-11-15T13:35:54;99782.25;;;10.72;89.44
33845;BME280;20145;43.118;25.694;2022-11-15T13:40:52;99784.78;;;10.80;88.59
33845;BME280;20145;43.118;25.694;2022-11-15T13:43:25;99783.00;;;10.88;89.26
33845;BME280;20145;43.118;25.694;2022-11-15T13:46:04;99775.25;;;10.89;87.54
33845;BME280;20145;43.118;25.694;2022-11-15T13:48:29;99768.31;;;10.94;88.07
33845;BME280;20145;43.118;25.694;2022-11-15T13:50:55;99769.19;;;10.95;87.75
33845;BME280;20145;43.118;25.694;2022-11-15T13:53:21;99770.91;;;10.98;87.95
33845;BME280;20145;43.118;25.694;2022-11-15T13:55:47;99761.47;;;10.90;87.45
33845;BME280;20145;43.118;25.694;2022-11-15T13:58:13;99762.34;;;10.88;87.03
33845;BME280;20145;43.118;25.694;2022-11-15T14:00:40;99755.47;;;10.88;88.27
33845;BME280;20145;43.118;25.694;2022-11-15T14:05:32;99748.69;;;10.74;87.78
33845;BME280;20145;43.118;25.694;2022-11-15T14:08:12;99747.78;;;10.84;87.72
33845;BME280;20145;43.118;25.694;2022-11-15T14:10:46;99748.56;;;10.92;87.93
33845;BME280;20145;43.118;25.694;2022-11-15T14:13:27;99741.59;;;11.02;87.85
33845;BME280;20145;43.118;25.694;2022-11-15T14:15:53;99744.16;;;11.02;87.46
33845;BME280;20145;43.118;25.694;2022-11-15T14:21:06;99744.28;;;10.89;88.05
33845;BME280;20145;43.118;25.694;2022-11-15T14:23:31;99740.03;;;10.82;88.43
33845;BME280;20145;43.118;25.694;2022-11-15T14:25:57;99742.59;;;10.82;87.85
33845;BME280;20145;43.118;25.694;2022-11-15T14:30:48;99739.19;;;10.80;87.54
33845;BME280;20145;43.118;25.694;2022-11-15T14:33:31;99733.19;;;10.78;88.33
33845;BME280;20145;43.118;25.694;2022-11-15T14:35:58;99734.00;;;10.82;88.31
33845;BME280;20145;43.118;25.694;2022-11-15T14:38:25;99730.59;;;10.75;88.01
33845;BME280;20145;43.118;25.694;2022-11-15T14:40:50;99740.09;;;10.73;88.95
33845;BME280;20145;43.118;25.694;2022-11-15T14:43:16;99730.72;;;10.63;88.10
33845;BME280;20145;43.118;25.694;2022-11-15T14:45:42;99735.88;;;10.64;88.81
33845;BME280;20145;43.118;25.694;2022-11-15T14:48:07;99741.94;;;10.57;88.70
33845;BME280;20145;43.118;25.694;2022-11-15T14:50:33;99738.50;;;10.57;89.46
33845;BME280;20145;43.118;25.694;2022-11-15T14:52:59;99740.28;;;10.48;89.01
33845;BME280;20145;43.118;25.694;2022-11-15T14:55:29;99727.50;;;10.27;90.88
33845;BME280;20145;43.118;25.694;2022-11-15T14:57:56;99731.78;;;10.23;90.78
33845;BME280;20145;43.118;25.694;2022-11-15T15:00:21;99728.38;;;10.17;90.78
33845;BME280;20145;43.118;25.694;2022-11-15T15:02:47;99736.16;;;10.08;92.09
33845;BME280;20145;43.118;25.694;2022-11-15T15:05:17;99730.16;;;10.07;91.89
33845;BME280;20145;43.118;25.694;2022-11-15T15:07:43;99734.47;;;10.03;92.61
33845;BME280;20145;43.118;25.694;2022-11-15T15:10:09;99724.97;;;10.12;91.95
33845;BME280;20145;43.118;25.694;2022-11-15T15:12:34;99730.06;;;10.19;91.96
33845;BME280;20145;43.118;25.694;2022-11-15T15:15:00;99724.91;;;10.22;92.11
33845;BME280;20145;43.118;25.694;2022-11-15T15:17:27;99714.59;;;10.22;91.48
33845;BME280;20145;43.118;25.694;2022-11-15T15:19:52;99714.59;;;10.29;92.84
33845;BME280;20145;43.118;25.694;2022-11-15T15:22:26;99710.22;;;10.40;91.61
33845;BME280;20145;43.118;25.694;2022-11-15T15:24:53;99713.63;;;10.48;90.68
33845;BME280;20145;43.118;25.694;2022-11-15T15:27:30;99711.97;;;10.33;91.97
33845;BME280;20145;43.118;25.694;2022-11-15T15:29:55;99716.25;;;10.40;91.20
33845;BME280;20145;43.118;25.694;2022-11-15T15:32:21;99711.88;;;10.48;91.11
33845;BME280;20145;43.118;25.694;2022-11-15T15:34:46;99710.97;;;10.56;90.77
33845;BME280;20145;43.118;25.694;2022-11-15T15:37:21;99712.72;;;10.54;90.04
33845;BME280;20145;43.118;25.694;2022-11-15T15:39:52;99709.25;;;10.55;88.52
33845;BME280;20145;43.118;25.694;2022-11-15T15:45:11;99717.91;;;10.49;90.28
33845;BME280;20145;43.118;25.694;2022-11-15T15:47:36;99719.59;;;10.50;89.48
33845;BME280;20145;43.118;25.694;2022-11-15T15:50:03;99714.47;;;10.48;89.52
33845;BME280;20145;43.118;25.694;2022-11-15T15:52:30;99712.72;;;10.52;90.18
33845;BME280;20145;43.118;25.694;2022-11-15T15:54:56;99715.31;;;10.54;88.60
33845;BME280;20145;43.118;25.694;2022-11-15T15:57:21;99712.75;;;10.51;88.74
33845;BME280;20145;43.118;25.694;2022-11-15T15:59:46;99700.72;;;10.46;89.26
33845;BME280;20145;43.118;25.694;2022-11-15T16:02:12;99713.69;;;10.37;89.90
33845;BME280;20145;43.118;25.694;2022-11-15T16:04:38;99706.72;;;10.48;88.64